sensor_id;sensor_type;location;lat;lon;timestamp;P1;durP1;ratioP1;P2;durP2;ratioP2
72156;SDS011;60035;52.122;5.406;2023-03-05T00:01:55;5.45;;;1.38;;
72156;SDS011;60035;52.122;5.406;2023-03-05T00:04:22;4.43;;;1.13;;
72156;SDS011;60035;52.122;5.406;2023-03-05T00:06:48;15.98;;;1.65;;
72156;SDS011;60035;52.122;5.406;2023-03-05T00:09:15;6.28;;;1.27;;
72156;SDS011;60035;52.122;5.406;2023-03-05T00:11:42;4.68;;;1.50;;
72156;SDS011;60035;52.122;5.406;2023-03-05T00:14:09;5.30;;;1.10;;
72156;SDS011;60035;52.122;5.406;2023-03-05T00:16:36;6.90;;;1.30;;
72156;SDS011;60035;52.122;5.406;2023-03-05T00:19:02;9.85;;;1.83;;
72156;SDS011;60035;52.122;5.406;2023-03-05T00:21:31;8.50;;;1.08;;
72156;SDS011;60035;52.122;5.406;2023-03-05T00:24:03;4.57;;;1.38;;
72156;SDS011;60035;52.122;5.406;2023-03-05T00:26:33;6.30;;;1.80;;
72156;SDS011;60035;52.122;5.406;2023-03-05T00:29:01;12.45;;;2.72;;
72156;SDS011;60035;52.122;5.406;2023-03-05T00:31:29;7.10;;;1.50;;
72156;SDS011;60035;52.122;5.406;2023-03-05T00:33:58;6.20;;;1.65;;
72156;SDS011;60035;52.122;5.406;2023-03-05T00:36:27;11.13;;;2.20;;
72156;SDS011;60035;52.122;5.406;2023-03-05T00:38:54;9.35;;;2.70;;
72156;SDS011;60035;52.122;5.406;2023-03-05T00:41:21;8.35;;;2.40;;
72156;SDS011;60035;52.122;5.406;2023-03-05T00:43:48;8.35;;;2.33;;
72156;SDS011;60035;52.122;5.406;2023-03-05T00:46:14;9.15;;;2.35;;
72156;SDS011;60035;52.122;5.406;2023-03-05T00:48:41;9.02;;;2.00;;
72156;SDS011;60035;52.122;5.406;2023-03-05T00:51:08;8.30;;;2.50;;
72156;SDS011;60035;52.122;5.406;2023-03-05T00:53:34;9.88;;;2.38;;
72156;SDS011;60035;52.122;5.406;2023-03-05T00:56:01;8.88;;;2.28;;
72156;SDS011;60035;52.122;5.406;2023-03-05T00:58:27;7.97;;;2.35;;
72156;SDS011;60035;52.122;5.406;2023-03-05T01:00:58;14.23;;;2.35;;
72156;SDS011;60035;52.122;5.406;2023-03-05T01:03:26;6.95;;;2.30;;
72156;SDS011;60035;52.122;5.406;2023-03-05T01:05:52;7.10;;;2.38;;
72156;SDS011;60035;52.122;5.406;2023-03-05T01:08:19;9.77;;;2.22;;
72156;SDS011;60035;52.122;5.406;2023-03-05T01:10:46;7.90;;;2.60;;
72156;SDS011;60035;52.122;5.406;2023-03-05T01:13:12;14.13;;;2.40;;
72156;SDS011;60035;52.122;5.406;2023-03-05T01:15:39;9.73;;;2.30;;
72156;SDS011;60035;52.122;5.406;2023-03-05T01:18:05;8.43;;;2.20;;
72156;SDS011;60035;52.122;5.406;2023-03-05T01:20:32;7.07;;;2.10;;
72156;SDS011;60035;52.122;5.406;2023-03-05T01:22:59;9.38;;;2.13;;
72156;SDS011;60035;52.122;5.406;2023-03-05T01:25:27;7.70;;;2.20;;
72156;SDS011;60035;52.122;5.406;2023-03-05T01:27:53;9.32;;;2.22;;
72156;SDS011;60035;52.122;5.406;2023-03-05T01:30:21;11.35;;;2.13;;
72156;SDS011;60035;52.122;5.406;2023-03-05T01:32:48;8.32;;;2.70;;
72156;SDS011;60035;52.122;5.406;2023-03-05T01:35:16;10.98;;;2.50;;
72156;SDS011;60035;52.122;5.406;2023-03-05T01:37:45;10.98;;;2.15;;
72156;SDS011;60035;52.122;5.406;2023-03-05T01:40:12;9.65;;;1.88;;
72156;SDS011;60035;52.122;5.406;2023-03-05T01:42:48;5.20;;;1.95;;
72156;SDS011;60035;52.122;5.406;2023-03-05T01:45:23;8.80;;;2.08;;
72156;SDS011;60035;52.122;5.406;2023-03-05T01:47:50;9.90;;;2.10;;
72156;SDS011;60035;52.122;5.406;2023-03-05T01:50:17;11.27;;;2.72;;
72156;SDS011;60035;52.122;5.406;2023-03-05T01:52:52;12.45;;;2.83;;
72156;SDS011;60035;52.122;5.406;2023-03-05T01:55:24;9.32;;;2.33;;
72156;SDS011;60035;52.122;5.406;2023-03-05T02:00:48;12.15;;;2.50;;
72156;SDS011;60035;52.122;5.406;2023-03-05T02:03:17;9.45;;;1.92;;
72156;SDS011;60035;52.122;5.406;2023-03-05T02:05:45;7.40;;;2.33;;
72156;SDS011;60035;52.122;5.406;2023-03-05T02:08:13;6.90;;;2.20;;
72156;SDS011;60035;52.122;5.406;2023-03-05T02:10:47;7.93;;;2.40;;
72156;SDS011;60035;52.122;5.406;2023-03-05T02:13:17;11.60;;;2.20;;
72156;SDS011;60035;52.122;5.406;2023-03-05T02:15:48;9.00;;;2.92;;
72156;SDS011;60035;52.122;5.406;2023-03-05T02:18:16;7.57;;;2.20;;
72156;SDS011;60035;52.122;5.406;2023-03-05T02:23:17;7.72;;;2.22;;
72156;SDS011;60035;52.122;5.406;2023-03-05T02:25:46;8.55;;;2.40;;
72156;SDS011;60035;52.122;5.406;2023-03-05T02:31:15;9.75;;;2.53;;
72156;SDS011;60035;52.122;5.406;2023-03-05T02:33:44;8.63;;;2.47;;
72156;SDS011;60035;52.122;5.406;2023-03-05T02:36:11;11.57;;;2.30;;
72156;SDS011;60035;52.122;5.406;2023-03-05T02:38:38;9.10;;;2.45;;
72156;SDS011;60035;52.122;5.406;2023-03-05T02:41:06;11.50;;;2.40;;
72156;SDS011;60035;52.122;5.406;2023-03-05T02:43:34;10.05;;;2.72;;
72156;SDS011;60035;52.122;5.406;2023-03-05T02:46:01;9.35;;;2.20;;
72156;SDS011;60035;52.122;5.406;2023-03-05T02:48:28;9.55;;;2.63;;
72156;SDS011;60035;52.122;5.406;2023-03-05T02:50:54;7.13;;;2.53;;
72156;SDS011;60035;52.122;5.406;2023-03-05T02:53:22;9.25;;;2.75;;
72156;SDS011;60035;52.122;5.406;2023-03-05T02:55:49;9.00;;;2.47;;
72156;SDS011;60035;52.122;5.406;2023-03-05T02:58:15;5.82;;;2.60;;
72156;SDS011;60035;52.122;5.406;2023-03-05T03:00:43;10.60;;;2.58;;
72156;SDS011;60035;52.122;5.406;2023-03-05T03:03:12;9.60;;;2.47;;
72156;SDS011;60035;52.122;5.406;2023-03-05T03:05:39;14.95;;;2.90;;
72156;SDS011;60035;52.122;5.406;2023-03-05T03:08:06;6.90;;;2.22;;
72156;SDS011;60035;52.122;5.406;2023-03-05T03:10:33;9.88;;;2.85;;
72156;SDS011;60035;52.122;5.406;2023-03-05T03:12:59;11.60;;;2.42;;
72156;SDS011;60035;52.122;5.406;2023-03-05T03:15:26;8.55;;;2.30;;
72156;SDS011;60035;52.122;5.406;2023-03-05T03:17:53;8.93;;;2.45;;
72156;SDS011;60035;52.122;5.406;2023-03-05T03:20:20;13.75;;;2.53;;
72156;SDS011;60035;52.122;5.406;2023-03-05T03:22:47;9.25;;;2.97;;
72156;SDS011;60035;52.122;5.406;2023-03-05T03:25:15;7.75;;;2.10;;
72156;SDS011;60035;52.122;5.406;2023-03-05T03:27:43;10.88;;;2.17;;
72156;SDS011;60035;52.122;5.406;2023-03-05T03:30:10;6.90;;;2.20;;
72156;SDS011;60035;52.122;5.406;2023-03-05T03:32:38;11.85;;;2.40;;
72156;SDS011;60035;52.122;5.406;2023-03-05T03:35:04;11.18;;;2.10;;
72156;SDS011;60035;52.122;5.406;2023-03-05T03:37:31;8.45;;;2.17;;
72156;SDS011;60035;52.122;5.406;2023-03-05T03:39:58;7.95;;;2.28;;
72156;SDS011;60035;52.122;5.406;2023-03-05T03:42:25;6.13;;;1.90;;
72156;SDS011;60035;52.122;5.406;2023-03-05T03:44:51;7.75;;;1.88;;
72156;SDS011;60035;52.122;5.406;2023-03-05T03:47:18;9.10;;;2.30;;
72156;SDS011;60035;52.122;5.406;2023-03-05T03:49:45;7.55;;;2.33;;
72156;SDS011;60035;52.122;5.406;2023-03-05T03:52:11;10.68;;;2.17;;
72156;SDS011;60035;52.122;5.406;2023-03-05T03:54:38;7.63;;;2.20;;
72156;SDS011;60035;52.122;5.406;2023-03-05T03:57:04;7.63;;;2.10;;
72156;SDS011;60035;52.122;5.406;2023-03-05T03:59:31;6.13;;;2.13;;
72156;SDS011;60035;52.122;5.406;2023-03-05T04:01:58;6.47;;;1.88;;
72156;SDS011;60035;52.122;5.406;2023-03-05T04:04:24;5.28;;;1.80;;
72156;SDS011;60035;52.122;5.406;2023-03-05T04:06:51;5.78;;;1.85;;
72156;SDS011;60035;52.122;5.406;2023-03-05T04:09:18;9.18;;;1.65;;
72156;SDS011;60035;52.122;5.406;2023-03-05T04:11:45;6.47;;;1.60;;
72156;SDS011;60035;52.122;5.406;2023-03-05T04:14:11;6.20;;;1.85;;
72156;SDS011;60035;52.122;5.406;2023-03-05T04:16:38;7.25;;;2.08;;
72156;SDS011;60035;52.122;5.406;2023-03-05T04:19:05;5.78;;;1.55;;
72156;SDS011;60035;52.122;5.406;2023-03-05T04:21:31;6.88;;;1.33;;
72156;SDS011;60035;52.122;5.406;2023-03-05T04:23:58;6.30;;;2.08;;
72156;SDS011;60035;52.122;5.406;2023-03-05T04:26:24;6.07;;;1.88;;
72156;SDS011;60035;52.122;5.406;2023-03-05T04:28:51;9.93;;;1.92;;
72156;SDS011;60035;52.122;5.406;2023-03-05T04:31:17;6.00;;;1.70;;
72156;SDS011;60035;52.122;5.406;2023-03-05T04:33:45;7.15;;;1.92;;
72156;SDS011;60035;52.122;5.406;2023-03-05T04:36:12;7.03;;;1.38;;
72156;SDS011;60035;52.122;5.406;2023-03-05T04:38:39;7.82;;;2.20;;
72156;SDS011;60035;52.122;5.406;2023-03-05T04:41:05;5.78;;;1.70;;
72156;SDS011;60035;52.122;5.406;2023-03-05T04:43:32;10.73;;;1.70;;
72156;SDS011;60035;52.122;5.406;2023-03-05T04:45:58;7.05;;;1.95;;
72156;SDS011;60035;52.122;5.406;2023-03-05T04:48:25;3.78;;;1.35;;
72156;SDS011;60035;52.122;5.406;2023-03-05T04:50:51;6.00;;;1.30;;
72156;SDS011;60035;52.122;5.406;2023-03-05T04:53:18;5.78;;;1.30;;
72156;SDS011;60035;52.122;5.406;2023-03-05T04:55:44;7.32;;;2.33;;
72156;SDS011;60035;52.122;5.406;2023-03-05T04:58:11;7.65;;;1.80;;
72156;SDS011;60035;52.122;5.406;2023-03-05T05:00:38;4.72;;;1.42;;
72156;SDS011;60035;52.122;5.406;2023-03-05T05:03:04;4.38;;;1.48;;
72156;SDS011;60035;52.122;5.406;2023-03-05T05:05:31;4.05;;;1.40;;
72156;SDS011;60035;52.122;5.406;2023-03-05T05:07:58;5.65;;;1.02;;
72156;SDS011;60035;52.122;5.406;2023-03-05T05:10:25;4.15;;;1.10;;
72156;SDS011;60035;52.122;5.406;2023-03-05T05:12:52;4.25;;;1.33;;
72156;SDS011;60035;52.122;5.406;2023-03-05T05:15:18;5.95;;;2.13;;
72156;SDS011;60035;52.122;5.406;2023-03-05T05:17:46;5.00;;;1.40;;
72156;SDS011;60035;52.122;5.406;2023-03-05T05:20:13;6.90;;;1.65;;
72156;SDS011;60035;52.122;5.406;2023-03-05T05:22:41;5.80;;;1.52;;
72156;SDS011;60035;52.122;5.406;2023-03-05T05:25:09;5.03;;;1.70;;
72156;SDS011;60035;52.122;5.406;2023-03-05T05:27:37;5.22;;;1.27;;
72156;SDS011;60035;52.122;5.406;2023-03-05T05:30:04;4.95;;;1.20;;
72156;SDS011;60035;52.122;5.406;2023-03-05T05:32:32;7.63;;;1.55;;
72156;SDS011;60035;52.122;5.406;2023-03-05T05:34:59;4.60;;;1.33;;
72156;SDS011;60035;52.122;5.406;2023-03-05T05:37:25;7.30;;;1.20;;
72156;SDS011;60035;52.122;5.406;2023-03-05T05:39:52;4.57;;;1.30;;
72156;SDS011;60035;52.122;5.406;2023-03-05T05:42:20;5.25;;;1.85;;
72156;SDS011;60035;52.122;5.406;2023-03-05T05:44:48;4.90;;;1.27;;
72156;SDS011;60035;52.122;5.406;2023-03-05T05:47:15;4.65;;;1.20;;
72156;SDS011;60035;52.122;5.406;2023-03-05T05:49:42;8.52;;;1.58;;
72156;SDS011;60035;52.122;5.406;2023-03-05T05:52:09;3.72;;;1.30;;
72156;SDS011;60035;52.122;5.406;2023-03-05T05:54:36;3.50;;;1.20;;
72156;SDS011;60035;52.122;5.406;2023-03-05T05:57:03;6.28;;;1.35;;
72156;SDS011;60035;52.122;5.406;2023-03-05T05:59:30;4.95;;;1.48;;
72156;SDS011;60035;52.122;5.406;2023-03-05T06:01:56;2.88;;;1.40;;
72156;SDS011;60035;52.122;5.406;2023-03-05T06:04:23;4.40;;;1.23;;
72156;SDS011;60035;52.122;5.406;2023-03-05T06:06:50;3.90;;;1.27;;
72156;SDS011;60035;52.122;5.406;2023-03-05T06:09:16;5.13;;;1.10;;
72156;SDS011;60035;52.122;5.406;2023-03-05T06:11:43;6.25;;;1.52;;
72156;SDS011;60035;52.122;5.406;2023-03-05T06:14:10;7.07;;;1.50;;
72156;SDS011;60035;52.122;5.406;2023-03-05T06:16:38;4.25;;;1.27;;
72156;SDS011;60035;52.122;5.406;2023-03-05T06:19:05;3.95;;;1.35;;
72156;SDS011;60035;52.122;5.406;2023-03-05T06:21:31;4.80;;;1.55;;
72156;SDS011;60035;52.122;5.406;2023-03-05T06:23:58;4.95;;;0.93;;
72156;SDS011;60035;52.122;5.406;2023-03-05T06:26:25;6.78;;;1.42;;
72156;SDS011;60035;52.122;5.406;2023-03-05T06:28:52;6.18;;;1.58;;
72156;SDS011;60035;52.122;5.406;2023-03-05T06:31:20;7.32;;;1.50;;
72156;SDS011;60035;52.122;5.406;2023-03-05T06:33:48;5.15;;;1.80;;
72156;SDS011;60035;52.122;5.406;2023-03-05T06:36:16;7.28;;;0.98;;
72156;SDS011;60035;52.122;5.406;2023-03-05T06:38:45;4.68;;;1.63;;
72156;SDS011;60035;52.122;5.406;2023-03-05T06:41:18;5.55;;;1.70;;
72156;SDS011;60035;52.122;5.406;2023-03-05T06:43:46;4.35;;;1.55;;
72156;SDS011;60035;52.122;5.406;2023-03-05T06:46:18;4.07;;;1.48;;
72156;SDS011;60035;52.122;5.406;2023-03-05T06:48:49;6.70;;;1.45;;
72156;SDS011;60035;52.122;5.406;2023-03-05T06:51:27;4.68;;;1.42;;
72156;SDS011;60035;52.122;5.406;2023-03-05T06:53:58;7.95;;;1.92;;
72156;SDS011;60035;52.122;5.406;2023-03-05T06:56:26;3.97;;;1.90;;
72156;SDS011;60035;52.122;5.406;2023-03-05T06:58:52;3.85;;;1.10;;
72156;SDS011;60035;52.122;5.406;2023-03-05T07:01:19;3.33;;;1.30;;
72156;SDS011;60035;52.122;5.406;2023-03-05T07:03:50;8.05;;;1.48;;
72156;SDS011;60035;52.122;5.406;2023-03-05T07:06:18;8.18;;;1.50;;
72156;SDS011;60035;52.122;5.406;2023-03-05T07:08:46;8.88;;;1.45;;
72156;SDS011;60035;52.122;5.406;2023-03-05T07:11:14;5.30;;;1.60;;
72156;SDS011;60035;52.122;5.406;2023-03-05T07:13:43;6.18;;;1.35;;
72156;SDS011;60035;52.122;5.406;2023-03-05T07:16:14;6.18;;;1.60;;
72156;SDS011;60035;52.122;5.406;2023-03-05T07:18:42;3.45;;;1.13;;
72156;SDS011;60035;52.122;5.406;2023-03-05T07:21:09;5.05;;;1.20;;
72156;SDS011;60035;52.122;5.406;2023-03-05T07:23:40;5.82;;;1.20;;
72156;SDS011;60035;52.122;5.406;2023-03-05T07:26:07;5.07;;;1.35;;
72156;SDS011;60035;52.122;5.406;2023-03-05T07:28:34;5.40;;;1.70;;
72156;SDS011;60035;52.122;5.406;2023-03-05T07:31:02;5.97;;;1.50;;
72156;SDS011;60035;52.122;5.406;2023-03-05T07:33:30;3.42;;;1.17;;
72156;SDS011;60035;52.122;5.406;2023-03-05T07:35:58;4.82;;;1.30;;
72156;SDS011;60035;52.122;5.406;2023-03-05T07:38:25;3.83;;;1.42;;
72156;SDS011;60035;52.122;5.406;2023-03-05T07:40:52;7.05;;;1.42;;
72156;SDS011;60035;52.122;5.406;2023-03-05T07:43:19;5.05;;;1.35;;
72156;SDS011;60035;52.122;5.406;2023-03-05T07:45:45;6.45;;;1.50;;
72156;SDS011;60035;52.122;5.406;2023-03-05T07:48:16;5.97;;;1.65;;
72156;SDS011;60035;52.122;5.406;2023-03-05T07:50:46;4.43;;;1.27;;
72156;SDS011;60035;52.122;5.406;2023-03-05T07:53:14;4.75;;;1.13;;
72156;SDS011;60035;52.122;5.406;2023-03-05T07:55:41;3.72;;;1.20;;
72156;SDS011;60035;52.122;5.406;2023-03-05T07:58:09;7.18;;;1.42;;
72156;SDS011;60035;52.122;5.406;2023-03-05T08:00:36;5.65;;;1.58;;
72156;SDS011;60035;52.122;5.406;2023-03-05T08:03:03;3.45;;;1.45;;
72156;SDS011;60035;52.122;5.406;2023-03-05T08:05:30;5.07;;;1.48;;
72156;SDS011;60035;52.122;5.406;2023-03-05T08:07:56;3.75;;;0.82;;
72156;SDS011;60035;52.122;5.406;2023-03-05T08:10:23;2.90;;;1.15;;
72156;SDS011;60035;52.122;5.406;2023-03-05T08:12:50;5.88;;;1.67;;
72156;SDS011;60035;52.122;5.406;2023-03-05T08:15:18;2.67;;;1.05;;
72156;SDS011;60035;52.122;5.406;2023-03-05T08:17:44;9.30;;;1.20;;
72156;SDS011;60035;52.122;5.406;2023-03-05T08:20:11;4.47;;;1.30;;
72156;SDS011;60035;52.122;5.406;2023-03-05T08:22:38;4.80;;;1.48;;
72156;SDS011;60035;52.122;5.406;2023-03-05T08:25:05;3.92;;;1.23;;
72156;SDS011;60035;52.122;5.406;2023-03-05T08:27:32;3.05;;;1.15;;
72156;SDS011;60035;52.122;5.406;2023-03-05T08:30:00;5.57;;;1.25;;
72156;SDS011;60035;52.122;5.406;2023-03-05T08:32:27;5.47;;;1.17;;
72156;SDS011;60035;52.122;5.406;2023-03-05T08:34:55;5.22;;;0.95;;
72156;SDS011;60035;52.122;5.406;2023-03-05T08:37:26;3.00;;;1.77;;
72156;SDS011;60035;52.122;5.406;2023-03-05T08:39:53;3.67;;;1.20;;
72156;SDS011;60035;52.122;5.406;2023-03-05T08:42:22;2.25;;;0.98;;
72156;SDS011;60035;52.122;5.406;2023-03-05T08:44:49;3.03;;;1.15;;
72156;SDS011;60035;52.122;5.406;2023-03-05T08:47:16;5.75;;;1.55;;
72156;SDS011;60035;52.122;5.406;2023-03-05T08:49:45;3.70;;;1.20;;
72156;SDS011;60035;52.122;5.406;2023-03-05T08:52:12;3.42;;;1.33;;
72156;SDS011;60035;52.122;5.406;2023-03-05T08:54:39;4.18;;;1.17;;
72156;SDS011;60035;52.122;5.406;2023-03-05T08:57:05;2.92;;;1.30;;
72156;SDS011;60035;52.122;5.406;2023-03-05T08:59:32;5.53;;;1.55;;
72156;SDS011;60035;52.122;5.406;2023-03-05T09:01:59;6.45;;;1.38;;
72156;SDS011;60035;52.122;5.406;2023-03-05T09:04:26;5.88;;;1.83;;
72156;SDS011;60035;52.122;5.406;2023-03-05T09:06:53;4.53;;;1.20;;
72156;SDS011;60035;52.122;5.406;2023-03-05T09:09:19;5.95;;;1.65;;
72156;SDS011;60035;52.122;5.406;2023-03-05T09:11:48;4.72;;;1.80;;
72156;SDS011;60035;52.122;5.406;2023-03-05T09:14:17;2.72;;;1.30;;
72156;SDS011;60035;52.122;5.406;2023-03-05T09:16:43;5.78;;;1.63;;
72156;SDS011;60035;52.122;5.406;2023-03-05T09:19:10;3.65;;;1.50;;
72156;SDS011;60035;52.122;5.406;2023-03-05T09:21:38;4.70;;;1.48;;
72156;SDS011;60035;52.122;5.406;2023-03-05T09:24:05;4.97;;;1.55;;
72156;SDS011;60035;52.122;5.406;2023-03-05T09:26:32;4.53;;;1.77;;
72156;SDS011;60035;52.122;5.406;2023-03-05T09:28:58;3.13;;;1.40;;
72156;SDS011;60035;52.122;5.406;2023-03-05T09:31:25;5.28;;;1.30;;
72156;SDS011;60035;52.122;5.406;2023-03-05T09:33:52;4.30;;;1.15;;
72156;SDS011;60035;52.122;5.406;2023-03-05T09:36:20;4.18;;;1.15;;
72156;SDS011;60035;52.122;5.406;2023-03-05T09:38:49;2.80;;;0.93;;
72156;SDS011;60035;52.122;5.406;2023-03-05T09:41:17;5.13;;;1.35;;
72156;SDS011;60035;52.122;5.406;2023-03-05T09:46:26;5.88;;;1.55;;
72156;SDS011;60035;52.122;5.406;2023-03-05T09:51:47;2.72;;;0.70;;
72156;SDS011;60035;52.122;5.406;2023-03-05T09:54:22;3.67;;;1.23;;
72156;SDS011;60035;52.122;5.406;2023-03-05T09:56:55;3.53;;;1.13;;
72156;SDS011;60035;52.122;5.406;2023-03-05T10:02:00;4.03;;;1.30;;
72156;SDS011;60035;52.122;5.406;2023-03-05T10:07:27;2.30;;;1.10;;
72156;SDS011;60035;52.122;5.406;2023-03-05T10:10:03;4.63;;;1.60;;
72156;SDS011;60035;52.122;5.406;2023-03-05T10:12:44;5.88;;;1.38;;
72156;SDS011;60035;52.122;5.406;2023-03-05T10:15:21;3.35;;;1.00;;
72156;SDS011;60035;52.122;5.406;2023-03-05T10:23:17;3.35;;;0.95;;
72156;SDS011;60035;52.122;5.406;2023-03-05T10:25:55;3.63;;;0.98;;
72156;SDS011;60035;52.122;5.406;2023-03-05T10:31:39;3.92;;;1.08;;
72156;SDS011;60035;52.122;5.406;2023-03-05T10:34:16;2.97;;;0.93;;
72156;SDS011;60035;52.122;5.406;2023-03-05T10:40:05;3.03;;;1.20;;
72156;SDS011;60035;52.122;5.406;2023-03-05T10:50:42;4.20;;;1.35;;
72156;SDS011;60035;52.122;5.406;2023-03-05T10:55:42;2.45;;;0.88;;
72156;SDS011;60035;52.122;5.406;2023-03-05T10:58:10;3.08;;;1.27;;
72156;SDS011;60035;52.122;5.406;2023-03-05T11:00:38;4.03;;;1.00;;
72156;SDS011;60035;52.122;5.406;2023-03-05T11:03:07;4.57;;;0.95;;
72156;SDS011;60035;52.122;5.406;2023-03-05T11:13:53;5.13;;;1.13;;
72156;SDS011;60035;52.122;5.406;2023-03-05T11:21:39;1.70;;;0.70;;
72156;SDS011;60035;52.122;5.406;2023-03-05T11:24:14;3.03;;;0.75;;
72156;SDS011;60035;52.122;5.406;2023-03-05T11:29:17;3.88;;;1.20;;
72156;SDS011;60035;52.122;5.406;2023-03-05T11:31:49;2.92;;;0.90;;
72156;SDS011;60035;52.122;5.406;2023-03-05T11:39:18;4.45;;;0.88;;
72156;SDS011;60035;52.122;5.406;2023-03-05T11:41:55;2.53;;;0.68;;
72156;SDS011;60035;52.122;5.406;2023-03-05T11:44:28;2.33;;;0.90;;
72156;SDS011;60035;52.122;5.406;2023-03-05T11:49:45;2.78;;;1.05;;
72156;SDS011;60035;52.122;5.406;2023-03-05T11:52:17;2.80;;;0.90;;
72156;SDS011;60035;52.122;5.406;2023-03-05T11:57:23;1.70;;;0.90;;
72156;SDS011;60035;52.122;5.406;2023-03-05T11:59:51;3.60;;;0.82;;
72156;SDS011;60035;52.122;5.406;2023-03-05T12:02:21;3.63;;;0.85;;
72156;SDS011;60035;52.122;5.406;2023-03-05T12:04:50;3.10;;;1.05;;
72156;SDS011;60035;52.122;5.406;2023-03-05T12:07:19;2.40;;;1.00;;
72156;SDS011;60035;52.122;5.406;2023-03-05T12:09:53;3.03;;;1.20;;
72156;SDS011;60035;52.122;5.406;2023-03-05T12:17:32;3.50;;;1.20;;
72156;SDS011;60035;52.122;5.406;2023-03-05T12:20:13;2.75;;;0.55;;
72156;SDS011;60035;52.122;5.406;2023-03-05T12:22:50;2.35;;;0.90;;
72156;SDS011;60035;52.122;5.406;2023-03-05T12:25:29;3.97;;;1.02;;
72156;SDS011;60035;52.122;5.406;2023-03-05T12:28:00;3.05;;;1.13;;
72156;SDS011;60035;52.122;5.406;2023-03-05T12:33:01;2.17;;;0.80;;
72156;SDS011;60035;52.122;5.406;2023-03-05T12:37:57;1.85;;;0.98;;
72156;SDS011;60035;52.122;5.406;2023-03-05T12:40:29;2.95;;;0.80;;
72156;SDS011;60035;52.122;5.406;2023-03-05T12:43:04;2.05;;;0.95;;
72156;SDS011;60035;52.122;5.406;2023-03-05T12:45:51;2.20;;;0.93;;
72156;SDS011;60035;52.122;5.406;2023-03-05T12:48:48;2.13;;;0.95;;
72156;SDS011;60035;52.122;5.406;2023-03-05T12:51:37;2.20;;;0.75;;
72156;SDS011;60035;52.122;5.406;2023-03-05T12:57:04;3.75;;;0.90;;
72156;SDS011;60035;52.122;5.406;2023-03-05T13:07:50;2.42;;;1.00;;
72156;SDS011;60035;52.122;5.406;2023-03-05T13:10:21;2.58;;;1.13;;
72156;SDS011;60035;52.122;5.406;2023-03-05T13:12:54;3.20;;;0.90;;
72156;SDS011;60035;52.122;5.406;2023-03-05T13:15:23;4.30;;;0.80;;
72156;SDS011;60035;52.122;5.406;2023-03-05T13:17:59;2.42;;;0.80;;
72156;SDS011;60035;52.122;5.406;2023-03-05T13:20:37;3.20;;;0.55;;
72156;SDS011;60035;52.122;5.406;2023-03-05T13:28:22;3.08;;;0.90;;
72156;SDS011;60035;52.122;5.406;2023-03-05T13:30:50;2.45;;;0.95;;
72156;SDS011;60035;52.122;5.406;2023-03-05T13:33:21;3.40;;;1.30;;
72156;SDS011;60035;52.122;5.406;2023-03-05T13:35:51;2.00;;;0.85;;
72156;SDS011;60035;52.122;5.406;2023-03-05T13:38:27;2.70;;;1.42;;
72156;SDS011;60035;52.122;5.406;2023-03-05T13:41:17;1.58;;;0.98;;
72156;SDS011;60035;52.122;5.406;2023-03-05T13:46:23;3.15;;;1.02;;
72156;SDS011;60035;52.122;5.406;2023-03-05T13:51:47;2.75;;;1.45;;
72156;SDS011;60035;52.122;5.406;2023-03-05T13:54:16;3.08;;;1.50;;
72156;SDS011;60035;52.122;5.406;2023-03-05T13:56:51;3.13;;;1.38;;
72156;SDS011;60035;52.122;5.406;2023-03-05T13:59:20;6.38;;;1.27;;
72156;SDS011;60035;52.122;5.406;2023-03-05T14:01:49;5.40;;;1.48;;
72156;SDS011;60035;52.122;5.406;2023-03-05T14:04:18;3.63;;;1.40;;
72156;SDS011;60035;52.122;5.406;2023-03-05T14:06:48;2.83;;;1.20;;
72156;SDS011;60035;52.122;5.406;2023-03-05T14:09:21;2.58;;;1.30;;
72156;SDS011;60035;52.122;5.406;2023-03-05T14:12:05;4.47;;;1.80;;
72156;SDS011;60035;52.122;5.406;2023-03-05T14:14:50;2.55;;;1.20;;
72156;SDS011;60035;52.122;5.406;2023-03-05T14:20:16;3.58;;;1.08;;
72156;SDS011;60035;52.122;5.406;2023-03-05T14:22:49;3.70;;;1.30;;
72156;SDS011;60035;52.122;5.406;2023-03-05T14:25:30;2.20;;;0.98;;
72156;SDS011;60035;52.122;5.406;2023-03-05T14:28:01;2.03;;;0.93;;
72156;SDS011;60035;52.122;5.406;2023-03-05T14:30:32;1.40;;;0.93;;
72156;SDS011;60035;52.122;5.406;2023-03-05T14:33:01;1.58;;;1.20;;
72156;SDS011;60035;52.122;5.406;2023-03-05T14:35:28;2.78;;;1.02;;
72156;SDS011;60035;52.122;5.406;2023-03-05T14:37:56;1.83;;;0.90;;
72156;SDS011;60035;52.122;5.406;2023-03-05T14:40:26;2.90;;;1.45;;
72156;SDS011;60035;52.122;5.406;2023-03-05T14:43:19;4.35;;;0.90;;
72156;SDS011;60035;52.122;5.406;2023-03-05T14:45:44;3.08;;;1.10;;
72156;SDS011;60035;52.122;5.406;2023-03-05T14:48:14;5.13;;;1.73;;
72156;SDS011;60035;52.122;5.406;2023-03-05T14:53:13;6.68;;;2.42;;
72156;SDS011;60035;52.122;5.406;2023-03-05T14:55:42;6.18;;;2.40;;
72156;SDS011;60035;52.122;5.406;2023-03-05T14:58:14;4.85;;;2.53;;
72156;SDS011;60035;52.122;5.406;2023-03-05T15:00:43;6.07;;;2.75;;
72156;SDS011;60035;52.122;5.406;2023-03-05T15:03:10;5.03;;;2.65;;
72156;SDS011;60035;52.122;5.406;2023-03-05T15:05:37;4.95;;;2.00;;
72156;SDS011;60035;52.122;5.406;2023-03-05T15:08:04;3.75;;;1.80;;
72156;SDS011;60035;52.122;5.406;2023-03-05T15:10:31;5.05;;;1.80;;
72156;SDS011;60035;52.122;5.406;2023-03-05T15:12:59;2.60;;;1.52;;
72156;SDS011;60035;52.122;5.406;2023-03-05T15:15:26;4.85;;;1.95;;
72156;SDS011;60035;52.122;5.406;2023-03-05T15:17:52;5.18;;;1.70;;
72156;SDS011;60035;52.122;5.406;2023-03-05T15:20:24;4.70;;;1.52;;
72156;SDS011;60035;52.122;5.406;2023-03-05T15:22:52;4.68;;;1.70;;
72156;SDS011;60035;52.122;5.406;2023-03-05T15:25:20;4.10;;;1.40;;
72156;SDS011;60035;52.122;5.406;2023-03-05T15:27:48;2.63;;;1.10;;
72156;SDS011;60035;52.122;5.406;2023-03-05T15:30:20;4.60;;;1.50;;
72156;SDS011;60035;52.122;5.406;2023-03-05T15:32:56;5.60;;;1.88;;
72156;SDS011;60035;52.122;5.406;2023-03-05T15:35:25;4.90;;;1.65;;
72156;SDS011;60035;52.122;5.406;2023-03-05T15:37:53;5.63;;;1.95;;
72156;SDS011;60035;52.122;5.406;2023-03-05T15:40:20;3.08;;;1.55;;
72156;SDS011;60035;52.122;5.406;2023-03-05T15:42:47;3.72;;;1.60;;
72156;SDS011;60035;52.122;5.406;2023-03-05T15:45:13;7.18;;;1.95;;
72156;SDS011;60035;52.122;5.406;2023-03-05T15:47:40;5.25;;;1.70;;
72156;SDS011;60035;52.122;5.406;2023-03-05T15:50:07;4.38;;;1.30;;
72156;SDS011;60035;52.122;5.406;2023-03-05T15:52:34;4.53;;;1.50;;
72156;SDS011;60035;52.122;5.406;2023-03-05T15:55:01;3.83;;;1.48;;
72156;SDS011;60035;52.122;5.406;2023-03-05T15:57:28;4.43;;;1.75;;
72156;SDS011;60035;52.122;5.406;2023-03-05T15:59:55;2.63;;;1.23;;
72156;SDS011;60035;52.122;5.406;2023-03-05T16:02:23;7.18;;;2.38;;
72156;SDS011;60035;52.122;5.406;2023-03-05T16:04:50;4.90;;;1.50;;
72156;SDS011;60035;52.122;5.406;2023-03-05T16:07:17;3.97;;;1.50;;
72156;SDS011;60035;52.122;5.406;2023-03-05T16:09:45;4.43;;;1.50;;
72156;SDS011;60035;52.122;5.406;2023-03-05T16:12:19;5.65;;;1.55;;
72156;SDS011;60035;52.122;5.406;2023-03-05T16:14:49;4.15;;;1.60;;
72156;SDS011;60035;52.122;5.406;2023-03-05T16:17:17;4.80;;;1.60;;
72156;SDS011;60035;52.122;5.406;2023-03-05T16:19:47;2.90;;;1.05;;
72156;SDS011;60035;52.122;5.406;2023-03-05T16:22:16;2.60;;;1.20;;
72156;SDS011;60035;52.122;5.406;2023-03-05T16:24:43;4.22;;;1.45;;
72156;SDS011;60035;52.122;5.406;2023-03-05T16:27:09;2.60;;;1.27;;
72156;SDS011;60035;52.122;5.406;2023-03-05T16:29:36;4.07;;;1.60;;
72156;SDS011;60035;52.122;5.406;2023-03-05T16:32:03;5.47;;;1.65;;
72156;SDS011;60035;52.122;5.406;2023-03-05T16:34:32;4.07;;;1.50;;
72156;SDS011;60035;52.122;5.406;2023-03-05T16:36:59;3.40;;;1.40;;
72156;SDS011;60035;52.122;5.406;2023-03-05T16:39:29;2.78;;;1.00;;
72156;SDS011;60035;52.122;5.406;2023-03-05T16:41:56;4.70;;;1.83;;
72156;SDS011;60035;52.122;5.406;2023-03-05T16:44:23;4.43;;;1.60;;